Time;durP1;ratioP1;P1;durP2;ratioP2;P2;SDS_P1;SDS_P2;PMS_P1;PMS_P2;Temp;Humidity;BMP_temperature;BMP_pressure;BME280_temperature;BME280_humidity;BME280_pressure;Samples;Min_cycle;Max_cycle;Signal;HPM_P1;HPM_P2
2022/03/21 00:01:58;;;;;;;;;;;;;;;2.8;66.93945;103023.2;;;;-81
2022/03/21 00:06:57;;;;;;;;;;;;;;;2.77;66.47559;103024.4;;;;-80
2022/03/21 00:11:59;;;;;;;;;;;;;;;2.75;66.43945;103021;;;;-79
2022/03/21 00:14:26;;;;;;;37.9;16.7;;;;;;;;;;;;;-82
2022/03/21 00:16:57;;;;;;;;;;;;;;;2.72;66.33691;103033.2;;;;-81
2022/03/21 00:21:57;;;;;;;;;;;;;;;2.71;66.08398;103031.7;;;;-80
2022/03/21 00:26:57;;;;;;;;;;;;;;;2.68;66.00293;103031;;;;-80
2022/03/21 00:31:57;;;;;;;;;;;;;;;2.66;65.53125;103031.7;;;;-79
2022/03/21 00:37:00;;;;;;;;;;;;;;;2.64;65.09082;103039.2;;;;-81
2022/03/21 00:41:57;;;;;;;;;;;;;;;2.57;65.59473;103039.4;;;;-82
2022/03/21 00:44:26;;;;;;;38.9;16.4;;;;;;;;;;;;;-82
2022/03/21 00:46:59;;;;;;;;;;;;;;;2.55;65.55762;103039.4;;;;-80
2022/03/21 00:51:57;;;;;;;;;;;;;;;2.53;65.45703;103039.5;;;;-80
2022/03/21 00:56:57;;;;;;;;;;;;;;;2.5;65.61621;103042.3;;;;-80
2022/03/21 01:01:57;;;;;;;;;;;;;;;2.48;65.50488;103045.1;;;;-79
2022/03/21 01:06:59;;;;;;;;;;;;;;;2.48;65.69922;103048;;;;-80
2022/03/21 01:11:57;;;;;;;;;;;;;;;2.43;65.87793;103047.6;;;;-81
2022/03/21 01:14:25;;;;;;;35.7;15.7;;;;;;;;;;;;;-81
2022/03/21 01:16:58;;;;;;;;;;;;;;;2.4;65.64355;103054.6;;;;-79
2022/03/21 01:21:57;;;;;;;;;;;;;;;2.38;64.69336;103059.8;;;;-79
2022/03/21 01:26:59;;;;;;;;;;;;;;;2.34;64.54297;103064.9;;;;-80
2022/03/21 01:31:57;;;;;;;;;;;;;;;2.28;64.5459;103063.6;;;;-79
2022/03/21 01:36:57;;;;;;;;;;;;;;;2.21;64.40527;103063.3;;;;-81
2022/03/21 01:41:57;;;;;;;;;;;;;;;2.17;64.29004;103067.5;;;;-80
2022/03/21 01:44:26;;;;;;;36.9;14.6;;;;;;;;;;;;;-81
2022/03/21 01:46:58;;;;;;;;;;;;;;;2.12;64.25;103067.8;;;;-80
2022/03/21 01:51:57;;;;;;;;;;;;;;;2.07;64.09082;103068.5;;;;-79
2022/03/21 01:56:57;;;;;;;;;;;;;;;2.04;64.23828;103066.2;;;;-80
2022/03/21 02:01:57;;;;;;;;;;;;;;;2;64.49414;103065.5;;;;-79
2022/03/21 02:06:57;;;;;;;;;;;;;;;1.95;64.91016;103063.4;;;;-79
2022/03/21 02:11:58;;;;;;;;;;;;;;;1.94;64.98535;103058.3;;;;-79
2022/03/21 02:14:25;;;;;;;29.3;13.1;;;;;;;;;;;;;-81
2022/03/21 02:16:57;;;;;;;;;;;;;;;1.93;65.33301;103060.4;;;;-79
2022/03/21 02:22:04;;;;;;;;;;;;;;;1.94;65.35547;103060.6;;;;-80
2022/03/21 02:26:58;;;;;;;;;;;;;;;1.95;65.41016;103059.5;;;;-79
2022/03/21 02:32:01;;;;;;;;;;;;;;;1.96;65.38086;103064;;;;-80
2022/03/21 02:36:59;;;;;;;;;;;;;;;1.98;65.05664;103065;;;;-80
2022/03/21 02:41:57;;;;;;;;;;;;;;;1.97;65.25293;103067.2;;;;-80
2022/03/21 02:44:32;;;;;;;33;13.5;;;;;;;;;;;;;-80
2022/03/21 02:46:59;;;;;;;;;;;;;;;1.98;64.86133;103069.2;;;;-80
2022/03/21 02:51:59;;;;;;;;;;;;;;;1.94;64.75684;103072;;;;-81
2022/03/21 02:56:59;;;;;;;;;;;;;;;1.93;64.7666;103074.2;;;;-79
2022/03/21 03:01:57;;;;;;;;;;;;;;;1.93;64.75488;103074;;;;-80
2022/03/21 03:06:57;;;;;;;;;;;;;;;1.88;64.79199;103077;;;;-80
2022/03/21 03:11:57;;;;;;;;;;;;;;;1.86;64.28711;103076.2;;;;-80
2022/03/21 03:14:24;;;;;;;29.6;13.3;;;;;;;;;;;;;-81
2022/03/21 03:16:57;;;;;;;;;;;;;;;1.83;64.02148;103076;;;;-80
2022/03/21 03:21:57;;;;;;;;;;;;;;;1.78;64.14551;103072.7;;;;-80
2022/03/21 03:26:57;;;;;;;;;;;;;;;1.74;64.43066;103077.6;;;;-81
2022/03/21 03:32:03;;;;;;;;;;;;;;;1.73;64.04883;103080.6;;;;-81
2022/03/21 03:36:57;;;;;;;;;;;;;;;1.68;63.94531;103084;;;;-79
2022/03/21 03:41:58;;;;;;;;;;;;;;;1.65;63.96094;103087.4;;;;-80
2022/03/21 03:44:26;;;;;;;27.9;12.3;;;;;;;;;;;;;-79
2022/03/21 03:46:57;;;;;;;;;;;;;;;1.58;64.65918;103093;;;;-80
2022/03/21 03:51:57;;;;;;;;;;;;;;;1.56;65.23242;103086.6;;;;-81
2022/03/21 03:56:57;;;;;;;;;;;;;;;1.58;65.59375;103097.8;;;;-79
2022/03/21 04:01:57;;;;;;;;;;;;;;;1.59;65.39941;103093.7;;;;-78
2022/03/21 04:06:57;;;;;;;;;;;;;;;1.61;65.86035;103095.7;;;;-80
2022/03/21 04:11:57;;;;;;;;;;;;;;;1.62;66.05664;103099.7;;;;-80
2022/03/21 04:14:24;;;;;;;28.3;12;;;;;;;;;;;;;-81
2022/03/21 04:16:57;;;;;;;;;;;;;;;1.63;65.89648;103103.3;;;;-81
2022/03/21 04:21:57;;;;;;;;;;;;;;;1.64;65.67969;103102.8;;;;-80
2022/03/21 04:26:57;;;;;;;;;;;;;;;1.62;65.77539;103104.5;;;;-79
2022/03/21 04:31:57;;;;;;;;;;;;;;;1.63;65.67871;103106.2;;;;-80
2022/03/21 04:36:57;;;;;;;;;;;;;;;1.62;65.78418;103110.8;;;;-80
2022/03/21 04:41:57;;;;;;;;;;;;;;;1.61;65.63086;103122.2;;;;-77
2022/03/21 04:44:23;;;;;;;34.6;12.3;;;;;;;;;;;;;-81
2022/03/21 04:46:57;;;;;;;;;;;;;;;1.6;65.8584;103122.2;;;;-76
2022/03/21 04:51:58;;;;;;;;;;;;;;;1.58;65.67188;103124.4;;;;-79
2022/03/21 04:56:57;;;;;;;;;;;;;;;1.58;65.37598;103125.8;;;;-79
2022/03/21 05:01:57;;;;;;;;;;;;;;;1.57;65.625;103127.5;;;;-79
2022/03/21 05:06:57;;;;;;;;;;;;;;;1.55;66.39551;103134.4;;;;-81
2022/03/21 05:11:57;;;;;;;;;;;;;;;1.52;66.15137;103132.9;;;;-80
2022/03/21 05:14:23;;;;;;;28.1;12.3;;;;;;;;;;;;;-80
2022/03/21 05:16:57;;;;;;;;;;;;;;;1.51;66.51953;103131.1;;;;-79
2022/03/21 05:21:57;;;;;;;;;;;;;;;1.51;66.55273;103134.3;;;;-80
2022/03/21 05:31:57;;;;;;;;;;;;;;;1.51;66.73633;103141.4;;;;-79
2022/03/21 05:36:58;;;;;;;;;;;;;;;1.51;66.58496;103142.5;;;;-81
2022/03/21 05:41:58;;;;;;;;;;;;;;;1.49;66.50488;103146.4;;;;-81
2022/03/21 05:44:24;;;;;;;33.5;13.1;;;;;;;;;;;;;-81
2022/03/21 05:46:57;;;;;;;;;;;;;;;1.49;66.77637;103144.4;;;;-79
2022/03/21 05:51:58;;;;;;;;;;;;;;;1.48;66.78711;103148.8;;;;-79
2022/03/21 05:56:57;;;;;;;;;;;;;;;1.5;65.72266;103151.3;;;;-80
2022/03/21 06:01:57;;;;;;;;;;;;;;;1.5;66.52832;103159.8;;;;-80
2022/03/21 06:06:57;;;;;;;;;;;;;;;1.51;65.93262;103167;;;;-79
2022/03/21 06:11:57;;;;;;;;;;;;;;;1.51;65.5625;103170.7;;;;-80
2022/03/21 06:14:25;;;;;;;30;12.9;;;;;;;;;;;;;-79
2022/03/21 06:16:57;;;;;;;;;;;;;;;1.51;64.98438;103168.6;;;;-80
2022/03/21 06:21:58;;;;;;;;;;;;;;;1.55;65.10938;103176.1;;;;-81
2022/03/21 06:26:57;;;;;;;;;;;;;;;1.65;65.72363;103179.3;;;;-80
2022/03/21 06:31:58;;;;;;;;;;;;;;;1.78;65.2002;103181.1;;;;-79
2022/03/21 06:36:57;;;;;;;;;;;;;;;1.88;64.51953;103187.5;;;;-80
2022/03/21 06:42:00;;;;;;;;;;;;;;;2;64.29785;103192.4;;;;-80
2022/03/21 06:44:22;;;;;;;28.7;12.4;;;;;;;;;;;;;-81
2022/03/21 06:46:58;;;;;;;;;;;;;;;2.11;64.23633;103197.8;;;;-79
2022/03/21 06:51:57;;;;;;;;;;;;;;;2.23;63.9834;103198.8;;;;-80
2022/03/21 06:56:57;;;;;;;;;;;;;;;2.39;64.05078;103207.4;;;;-81
2022/03/21 07:01:59;;;;;;;;;;;;;;;2.52;64.30859;103208.7;;;;-80
2022/03/21 07:06:57;;;;;;;;;;;;;;;2.66;64.38574;103215.6;;;;-80
2022/03/21 07:11:57;;;;;;;;;;;;;;;2.78;63.24609;103214;;;;-80
2022/03/21 07:14:22;;;;;;;33.9;14.6;;;;;;;;;;;;;-81
2022/03/21 07:16:57;;;;;;;;;;;;;;;2.91;63.17676;103217.6;;;;-80
2022/03/21 07:21:57;;;;;;;;;;;;;;;3.08;62.98438;103220.4;;;;-78
2022/03/21 07:26:57;;;;;;;;;;;;;;;3.25;63.41406;103222.7;;;;-78
2022/03/21 07:31:57;;;;;;;;;;;;;;;3.47;63.47949;103223.1;;;;-79
2022/03/21 07:36:57;;;;;;;;;;;;;;;3.71;63.78906;103219;;;;-77
2022/03/21 07:42:00;;;;;;;;;;;;;;;4.01;63.13086;103225.9;;;;-80
2022/03/21 07:51:57;;;;;;;;;;;;;;;4.61;64.32715;103226.5;;;;-80
2022/03/21 07:56:57;;;;;;;;;;;;;;;4.92;63.73828;103225.5;;;;-79
2022/03/21 08:01:57;;;;;;;;;;;;;;;5.23;63.67285;103225.4;;;;-79
2022/03/21 08:06:58;;;;;;;;;;;;;;;5.67;62.98047;103227.1;;;;-80
2022/03/21 08:12:00;;;;;;;;;;;;;;;6.05;63.02344;103229.1;;;;-80
2022/03/21 08:14:22;;;;;;;41.7;18.2;;;;;;;;;;;;;-79
2022/03/21 08:16:57;;;;;;;;;;;;;;;6.5;62.86914;103227.6;;;;-80
2022/03/21 08:21:58;;;;;;;;;;;;;;;6.99;62.78613;103233.7;;;;-81
2022/03/21 08:26:57;;;;;;;;;;;;;;;7.45;61.80371;103237.3;;;;-80
2022/03/21 08:31:57;;;;;;;;;;;;;;;8.06;61.16016;103239.1;;;;-79
2022/03/21 08:37:00;;;;;;;;;;;;;;;8.52;60.20703;103237.5;;;;-80
2022/03/21 08:41:57;;;;;;;;;;;;;;;8.91;59.63965;103230.1;;;;-79
2022/03/21 08:44:23;;;;;;;40.6;19.2;;;;;;;;;;;;;-82
2022/03/21 08:46:57;;;;;;;;;;;;;;;9.45;58.49219;103227.8;;;;-80
2022/03/21 08:51:57;;;;;;;;;;;;;;;9.9;58.01953;103231;;;;-80
2022/03/21 08:56:57;;;;;;;;;;;;;;;10.23;56.64941;103228.9;;;;-82
2022/03/21 09:01:57;;;;;;;;;;;;;;;10.51;56.98535;103228.6;;;;-80
2022/03/21 09:06:57;;;;;;;;;;;;;;;10.68;56.89648;103229.2;;;;-81
2022/03/21 09:11:57;;;;;;;;;;;;;;;11.12;56.25098;103227.2;;;;-79
2022/03/21 09:14:23;;;;;;;38.4;18.6;;;;;;;;;;;;;-81
2022/03/21 09:16:57;;;;;;;;;;;;;;;11.6;55.11719;103221.3;;;;-82
2022/03/21 09:21:57;;;;;;;;;;;;;;;12;54.86621;103220.7;;;;-80
2022/03/21 09:26:57;;;;;;;;;;;;;;;12.25;54.10352;103219.5;;;;-80
2022/03/21 09:31:57;;;;;;;;;;;;;;;12.59;53.61719;103215.8;;;;-80
2022/03/21 09:36:57;;;;;;;;;;;;;;;12.69;52.99219;103217.5;;;;-80
2022/03/21 09:41:59;;;;;;;;;;;;;;;12.98;52.63477;103215.4;;;;-81
2022/03/21 09:44:26;;;;;;;36;18.3;;;;;;;;;;;;;-81
2022/03/21 09:46:57;;;;;;;;;;;;;;;13.36;52.09668;103216.3;;;;-80
2022/03/21 09:52:03;;;;;;;;;;;;;;;13.57;51.39063;103211.4;;;;-82
2022/03/21 09:56:57;;;;;;;;;;;;;;;13.76;51.35742;103216.2;;;;-81
2022/03/21 10:01:57;;;;;;;;;;;;;;;13.95;50.45605;103213.9;;;;-81
2022/03/21 10:07:02;;;;;;;;;;;;;;;14.13;50.4209;103208.2;;;;-81
2022/03/21 10:11:57;;;;;;;;;;;;;;;14.31;49.54102;103204.1;;;;-78
2022/03/21 10:14:34;;;;;;;30;15.9;;;;;;;;;;;;;-80
2022/03/21 10:16:57;;;;;;;;;;;;;;;14.53;48.69727;103202.5;;;;-80
2022/03/21 10:22:12;;;;;;;;;;;;;;;14.81;48.00684;103198.1;;;;-80
2022/03/21 10:26:57;;;;;;;;;;;;;;;14.98;47.86719;103203.7;;;;-81
2022/03/21 10:31:56;;;;;;;;;;;;;;;15.18;47.70898;103206.8;;;;-82
2022/03/21 10:37:08;;;;;;;;;;;;;;;15.39;47.1543;103207.3;;;;-81
2022/03/21 10:42:00;;;;;;;;;;;;;;;15.56;47.50098;103206.2;;;;-83
2022/03/21 10:44:30;;;;;;;24.5;13.5;;;;;;;;;;;;;-81
2022/03/21 10:47:03;;;;;;;;;;;;;;;15.72;47.63184;103204.1;;;;-81
2022/03/21 10:51:57;;;;;;;;;;;;;;;15.88;46.05371;103196.6;;;;-81
2022/03/21 10:56:57;;;;;;;;;;;;;;;16.09;49.02832;103200.4;;;;-81
2022/03/21 11:02:14;;;;;;;;;;;;;;;16.38;49.52441;103199.4;;;;-80
2022/03/21 11:06:57;;;;;;;;;;;;;;;16.59;49.92285;103199.3;;;;-81
2022/03/21 11:11:57;;;;;;;;;;;;;;;16.79;50.64648;103193.7;;;;-81
2022/03/21 11:14:31;;;;;;;21.6;11.5;;;;;;;;;;;;;-80
2022/03/21 11:16:57;;;;;;;;;;;;;;;17.02;53.22168;103190;;;;-81
2022/03/21 11:21:57;;;;;;;;;;;;;;;17.22;48.29199;103184.3;;;;-82
2022/03/21 11:27:04;;;;;;;;;;;;;;;17.38;51.30371;103186.2;;;;-82
2022/03/21 11:32:10;;;;;;;;;;;;;;;17.61;53.20117;103183.3;;;;-80
2022/03/21 11:36:59;;;;;;;;;;;;;;;17.77;52.04102;103180.1;;;;-82
2022/03/21 11:42:06;;;;;;;;;;;;;;;17.94;52.45898;103180.2;;;;-81
2022/03/21 11:44:33;;;;;;;17.7;9.7;;;;;;;;;;;;;-81
2022/03/21 11:47:07;;;;;;;;;;;;;;;18.15;53.58398;103184.3;;;;-82
2022/03/21 11:52:01;;;;;;;;;;;;;;;18.32;53.63867;103178.7;;;;-81
2022/03/21 11:57:00;;;;;;;;;;;;;;;18.48;55.57715;103180.8;;;;-82
2022/03/21 12:01:57;;;;;;;;;;;;;;;18.54;52.17676;103173.8;;;;-82
2022/03/21 12:07:01;;;;;;;;;;;;;;;18.64;52.32422;103166.6;;;;-82
2022/03/21 12:12:05;;;;;;;;;;;;;;;18.81;55.24316;103170.7;;;;-81
2022/03/21 12:14:40;;;;;;;14.7;9.1;;;;;;;;;;;;;-82
2022/03/21 12:17:08;;;;;;;;;;;;;;;18.98;54.71875;103162.2;;;;-82
2022/03/21 12:22:09;;;;;;;;;;;;;;;19.11;53.45996;103155.8;;;;-82
2022/03/21 12:26:59;;;;;;;;;;;;;;;19.24;55.1377;103153.4;;;;-82
2022/03/21 12:32:10;;;;;;;;;;;;;;;19.28;54.74414;103153.3;;;;-81
2022/03/21 12:36:57;;;;;;;;;;;;;;;19.39;57.63477;103147.9;;;;-83
2022/03/21 12:42:01;;;;;;;;;;;;;;;19.59;58.69727;103144.1;;;;-83
2022/03/21 12:44:38;;;;;;;15.4;8.7;;;;;;;;;;;;;-81
2022/03/21 12:47:03;;;;;;;;;;;;;;;19.68;56.97852;103140.2;;;;-82
2022/03/21 12:52:04;;;;;;;;;;;;;;;19.74;57.29297;103139.7;;;;-81
2022/03/21 12:57:07;;;;;;;;;;;;;;;19.82;55.45996;103138;;;;-81
2022/03/21 13:02:00;;;;;;;;;;;;;;;19.9;58.45215;103133.6;;;;-82
2022/03/21 13:11:57;;;;;;;;;;;;;;;20.12;56.93359;103123.6;;;;-80
2022/03/21 13:14:42;;;;;;;18.5;9.5;;;;;;;;;;;;;-82
2022/03/21 13:16:58;;;;;;;;;;;;;;;20.2;57.64941;103122.2;;;;-84
2022/03/21 13:21:57;;;;;;;;;;;;;;;20.33;59.02051;103115.4;;;;-82
2022/03/21 13:27:01;;;;;;;;;;;;;;;20.53;59.03613;103117.2;;;;-82
2022/03/21 13:31:58;;;;;;;;;;;;;;;20.66;59.58789;103109.5;;;;-81
2022/03/21 13:41:58;;;;;;;;;;;;;;;20.81;57.12305;103113.2;;;;-82
2022/03/21 13:45:01;;;;;;;15.4;8.9;;;;;;;;;;;;;-83
2022/03/21 13:47:09;;;;;;;;;;;;;;;20.82;57.79688;103117.6;;;;-82
2022/03/21 13:51:57;;;;;;;;;;;;;;;20.84;58.45117;103117.9;;;;-81
2022/03/21 13:56:57;;;;;;;;;;;;;;;20.86;57.41406;103113.5;;;;-82
2022/03/21 14:02:05;;;;;;;;;;;;;;;20.81;56.77051;103111.2;;;;-83
2022/03/21 14:12:10;;;;;;;;;;;;;;;20.79;57.34766;103111.1;;;;-83
2022/03/21 14:14:48;;;;;;;14.6;9;;;;;;;;;;;;;-84
2022/03/21 14:16:58;;;;;;;;;;;;;;;20.78;57.95215;103107;;;;-82
2022/03/21 14:21:57;;;;;;;;;;;;;;;20.76;58.60938;103108;;;;-80
2022/03/21 14:26:57;;;;;;;;;;;;;;;20.73;57.7627;103109.4;;;;-80
2022/03/21 14:31:58;;;;;;;;;;;;;;;20.7;58.33984;103105.8;;;;-81
2022/03/21 14:37:00;;;;;;;;;;;;;;;20.64;59.02832;103101.9;;;;-82
2022/03/21 14:42:03;;;;;;;;;;;;;;;20.65;59.0625;103100.5;;;;-82
2022/03/21 14:44:50;;;;;;;19.7;10.1;;;;;;;;;;;;;-81
2022/03/21 14:47:01;;;;;;;;;;;;;;;20.64;58.9375;103102.7;;;;-82
2022/03/21 14:51:57;;;;;;;;;;;;;;;20.63;56.81348;103107.9;;;;-82
2022/03/21 14:57:00;;;;;;;;;;;;;;;20.51;58.14453;103103.6;;;;-84
2022/03/21 15:02:00;;;;;;;;;;;;;;;20.46;58.39941;103105.6;;;;-82
2022/03/21 15:11:57;;;;;;;;;;;;;;;20.15;57.3916;103104.9;;;;-82
2022/03/21 15:14:57;;;;;;;17.9;10.5;;;;;;;;;;;;;-80
2022/03/21 15:17:00;;;;;;;;;;;;;;;20.08;57.37012;103103.8;;;;-82
2022/03/21 15:22:01;;;;;;;;;;;;;;;20.04;57.61719;103102.7;;;;-82
2022/03/21 15:26:56;;;;;;;;;;;;;;;19.98;56.73145;103101.4;;;;-82
2022/03/21 15:31:57;;;;;;;;;;;;;;;19.9;56.20996;103100.8;;;;-81
2022/03/21 15:41:57;;;;;;;;;;;;;;;19.61;55.02441;103098.9;;;;-82
2022/03/21 15:44:57;;;;;;;20.4;11.5;;;;;;;;;;;;;-82
2022/03/21 15:46:57;;;;;;;;;;;;;;;19.46;54.69727;103098.2;;;;-82
2022/03/21 15:51:57;;;;;;;;;;;;;;;19.26;54.84473;103099.5;;;;-82
2022/03/21 15:56:57;;;;;;;;;;;;;;;19.11;55.08691;103102.3;;;;-81
2022/03/21 16:01:59;;;;;;;;;;;;;;;18.93;55.48535;103104.9;;;;-82
2022/03/21 16:07:08;;;;;;;;;;;;;;;18.73;55.00586;103098;;;;-83
2022/03/21 16:11:57;;;;;;;;;;;;;;;18.5;54.98926;103098.1;;;;-82
2022/03/21 16:15:02;;;;;;;18.6;11.5;;;;;;;;;;;;;-82
2022/03/21 16:17:00;;;;;;;;;;;;;;;18.29;53.90723;103100.3;;;;-80
2022/03/21 16:21:57;;;;;;;;;;;;;;;18.13;53.33301;103102.5;;;;-80
2022/03/21 16:26:57;;;;;;;;;;;;;;;17.89;53.08789;103097.5;;;;-81
2022/03/21 16:31:57;;;;;;;;;;;;;;;17.67;52.9707;103102.4;;;;-82
2022/03/21 16:36:58;;;;;;;;;;;;;;;17.42;52.91797;103094.7;;;;-82
2022/03/21 16:41:57;;;;;;;;;;;;;;;17.18;51.41797;103102.7;;;;-80
2022/03/21 16:45:03;;;;;;;20.6;11.9;;;;;;;;;;;;;-82
2022/03/21 16:46:57;;;;;;;;;;;;;;;16.9;51.25977;103103.1;;;;-80
2022/03/21 16:51:57;;;;;;;;;;;;;;;16.6;50.8623;103103.6;;;;-82
2022/03/21 16:57:09;;;;;;;;;;;;;;;;;;;;;
2022/03/21 17:01:57;;;;;;;;;;;;;;;16.01;51.43848;103104.4;;;;-80
2022/03/21 17:06:57;;;;;;;;;;;;;;;15.71;51.81055;103103.4;;;;-79
2022/03/21 17:11:57;;;;;;;;;;;;;;;15.45;51.17188;103105.4;;;;-80
2022/03/21 17:15:05;;;;;;;21.6;12;;;;;;;;;;;;;-81
2022/03/21 17:16:59;;;;;;;;;;;;;;;15.17;51.92676;103112.6;;;;-81
2022/03/21 17:27:02;;;;;;;;;;;;;;;14.66;51.75391;103112;;;;-80
2022/03/21 17:32:01;;;;;;;;;;;;;;;14.4;51.9043;103109;;;;-79
2022/03/21 17:37:02;;;;;;;;;;;;;;;14.17;51.73047;103109.8;;;;-81
2022/03/21 17:41:58;;;;;;;;;;;;;;;13.93;52.16309;103110.8;;;;-80
2022/03/21 17:45:07;;;;;;;20;10.8;;;;;;;;;;;;;-80
2022/03/21 17:46:59;;;;;;;;;;;;;;;13.71;52.16113;103115.6;;;;-85
2022/03/21 17:52:01;;;;;;;;;;;;;;;13.49;52.4375;103112.2;;;;-81
2022/03/21 17:56:58;;;;;;;;;;;;;;;13.27;52.34375;103122.8;;;;-81
2022/03/21 18:01:58;;;;;;;;;;;;;;;13.05;52.35059;103122;;;;-80
2022/03/21 18:06:58;;;;;;;;;;;;;;;12.84;52.4375;103129.2;;;;-80
2022/03/21 18:11:58;;;;;;;;;;;;;;;12.63;52.41309;103131.6;;;;-80
2022/03/21 18:15:19;;;;;;;20.1;11.1;;;;;;;;;;;;;-82
2022/03/21 18:16:58;;;;;;;;;;;;;;;12.44;52.27832;103135.9;;;;-81
2022/03/21 18:22:03;;;;;;;;;;;;;;;12.26;52.36816;103140.2;;;;-80
2022/03/21 18:27:06;;;;;;;;;;;;;;;12.08;52.38086;103147.9;;;;-79
2022/03/21 18:31:58;;;;;;;;;;;;;;;11.91;52.30273;103152.1;;;;-80
2022/03/21 18:37:08;;;;;;;;;;;;;;;11.74;52.49707;103150.8;;;;-80
2022/03/21 18:41:58;;;;;;;;;;;;;;;11.59;52.55664;103151.9;;;;-80
2022/03/21 18:45:14;;;;;;;24;11.2;;;;;;;;;;;;;-79
2022/03/21 18:47:08;;;;;;;;;;;;;;;11.43;52.59277;103157.1;;;;-80
2022/03/21 18:51:58;;;;;;;;;;;;;;;11.29;52.81152;103157.1;;;;-82
2022/03/21 18:57:01;;;;;;;;;;;;;;;11.16;53.01953;103161.2;;;;-79
2022/03/21 19:01:58;;;;;;;;;;;;;;;11.03;53.125;103169.6;;;;-81
2022/03/21 19:07:00;;;;;;;;;;;;;;;10.91;53.11133;103175.3;;;;-80
2022/03/21 19:11:58;;;;;;;;;;;;;;;10.78;53.33008;103171.1;;;;-80
2022/03/21 19:15:17;;;;;;;21.6;10.3;;;;;;;;;;;;;-80
2022/03/21 19:16:59;;;;;;;;;;;;;;;10.66;53.42676;103175.1;;;;-79
2022/03/21 19:21:58;;;;;;;;;;;;;;;10.54;53.57813;103173.3;;;;-79
2022/03/21 19:26:59;;;;;;;;;;;;;;;10.41;53.60742;103170.7;;;;-80
2022/03/21 19:32:03;;;;;;;;;;;;;;;10.3;53.8291;103176.4;;;;-80
2022/03/21 19:41:59;;;;;;;;;;;;;;;10.08;54.0459;103173.6;;;;-81
2022/03/21 19:45:14;;;;;;;20.7;10.1;;;;;;;;;;;;;-77
2022/03/21 19:46:58;;;;;;;;;;;;;;;9.98;54.07813;103180.4;;;;-79
2022/03/21 19:51:59;;;;;;;;;;;;;;;9.88;54.11133;103186.1;;;;-80
2022/03/21 19:56:58;;;;;;;;;;;;;;;9.79;54.26563;103191;;;;-80
2022/03/21 20:01:58;;;;;;;;;;;;;;;9.7;54.24414;103191.8;;;;-79
2022/03/21 20:07:00;;;;;;;;;;;;;;;9.63;54.25684;103195.3;;;;-80
2022/03/21 20:11:59;;;;;;;;;;;;;;;9.54;54.18945;103196.5;;;;-78
2022/03/21 20:15:14;;;;;;;23.4;10.9;;;;;;;;;;;;;-79
2022/03/21 20:16:58;;;;;;;;;;;;;;;9.46;54.3252;103197.5;;;;-79
2022/03/21 20:21:58;;;;;;;;;;;;;;;9.38;54.47168;103206.9;;;;-80
2022/03/21 20:26:58;;;;;;;;;;;;;;;9.31;54.47363;103209.9;;;;-80
2022/03/21 20:31:58;;;;;;;;;;;;;;;9.25;54.47559;103212.6;;;;-80
2022/03/21 20:36:59;;;;;;;;;;;;;;;9.16;54.63184;103212.6;;;;-80
2022/03/21 20:41:58;;;;;;;;;;;;;;;9.09;54.71191;103211;;;;-79
2022/03/21 20:45:14;;;;;;;20.6;9.7;;;;;;;;;;;;;-80
2022/03/21 20:46:58;;;;;;;;;;;;;;;9.02;54.8584;103210.4;;;;-80
2022/03/21 20:51:58;;;;;;;;;;;;;;;8.95;54.94043;103210.3;;;;-78
2022/03/21 20:57:00;;;;;;;;;;;;;;;8.89;55.04199;103210.7;;;;-79
2022/03/21 21:01:58;;;;;;;;;;;;;;;8.83;55.20117;103205.3;;;;-80
2022/03/21 21:06:57;;;;;;;;;;;;;;;8.77;55.34863;103203.8;;;;-79
2022/03/21 21:11:58;;;;;;;;;;;;;;;8.71;55.45313;103206.6;;;;-78
2022/03/21 21:15:15;;;;;;;21.3;10.5;;;;;;;;;;;;;-79
2022/03/21 21:16:57;;;;;;;;;;;;;;;8.67;55.54688;103208.1;;;;-80
2022/03/21 21:21:57;;;;;;;;;;;;;;;8.62;55.74023;103204.8;;;;-79
2022/03/21 21:26:57;;;;;;;;;;;;;;;8.57;55.90137;103201.7;;;;-79
2022/03/21 21:31:57;;;;;;;;;;;;;;;8.52;55.93848;103204.7;;;;-78
2022/03/21 21:36:57;;;;;;;;;;;;;;;8.49;56.05664;103209.2;;;;-79
2022/03/21 21:41:57;;;;;;;;;;;;;;;8.45;56.06152;103205.5;;;;-80
2022/03/21 21:45:15;;;;;;;22.8;10.1;;;;;;;;;;;;;-79
2022/03/21 21:46:58;;;;;;;;;;;;;;;8.4;56.18848;103204.4;;;;-80
2022/03/21 21:51:57;;;;;;;;;;;;;;;8.35;56.33691;103201.4;;;;-77
2022/03/21 21:56:58;;;;;;;;;;;;;;;8.29;56.39746;103200.6;;;;-79
2022/03/21 22:01:58;;;;;;;;;;;;;;;8.25;56.5791;103195.9;;;;-78
2022/03/21 22:06:58;;;;;;;;;;;;;;;8.2;56.67285;103193;;;;-80
2022/03/21 22:11:57;;;;;;;;;;;;;;;8.15;56.94336;103191.4;;;;-80
2022/03/21 22:15:16;;;;;;;22.9;10.3;;;;;;;;;;;;;-78
2022/03/21 22:16:58;;;;;;;;;;;;;;;8.1;56.94824;103196.5;;;;-80
2022/03/21 22:21:57;;;;;;;;;;;;;;;8.07;57.13184;103199.4;;;;-79
2022/03/21 22:26:57;;;;;;;;;;;;;;;8.02;57.10254;103200.4;;;;-80
2022/03/21 22:31:57;;;;;;;;;;;;;;;8;57.25586;103203.8;;;;-79
2022/03/21 22:36:57;;;;;;;;;;;;;;;7.95;57.27148;103205.8;;;;-79
2022/03/21 22:51:57;;;;;;;;;;;;;;;7.77;57.12598;103203.2;;;;-80
2022/03/21 22:56:57;;;;;;;;;;;;;;;7.71;57.22949;103197.9;;;;-79
2022/03/21 23:01:59;;;;;;;;;;;;;;;7.66;57.31055;103195.2;;;;-80
2022/03/21 23:06:57;;;;;;;;;;;;;;;7.6;57.27051;103193.5;;;;-79
2022/03/21 23:11:57;;;;;;;;;;;;;;;7.55;57.27539;103195.4;;;;-80
2022/03/21 23:15:17;;;;;;;22.3;9.6;;;;;;;;;;;;;-79
2022/03/21 23:16:57;;;;;;;;;;;;;;;7.49;57.18848;103196.9;;;;-80
2022/03/21 23:21:57;;;;;;;;;;;;;;;7.41;57.33301;103193;;;;-79
2022/03/21 23:26:57;;;;;;;;;;;;;;;7.35;57.36914;103192.3;;;;-79
2022/03/21 23:31:57;;;;;;;;;;;;;;;7.31;57.32031;103192.6;;;;-79
2022/03/21 23:36:57;;;;;;;;;;;;;;;7.25;57.5332;103188.9;;;;-79
2022/03/21 23:45:16;;;;;;;21.7;9.3;;;;;;;;;;;;;-81
2022/03/21 23:46:57;;;;;;;;;;;;;;;7.17;57.5332;103192.3;;;;-80
2022/03/21 23:51:59;;;;;;;;;;;;;;;7.12;57.61523;103193;;;;-74
2022/03/21 23:56:57;;;;;;;;;;;;;;;7.08;57.69727;103187.9;;;;-76
